createdAt,value
2022-09-14T00:05:16.934Z,1.67
2022-09-14T00:15:19.336Z,2.15
2022-09-14T00:25:21.578Z,1.65
2022-09-14T00:35:23.924Z,1.50
2022-09-14T00:45:26.625Z,1.52
2022-09-14T00:55:29.527Z,1.70
2022-09-14T01:05:55.690Z,2.03
2022-09-14T01:16:09.947Z,1.30
2022-09-14T01:26:42.493Z,1.52
2022-09-14T01:36:52.051Z,1.40
2022-09-14T01:46:57.927Z,1.60
2022-09-14T01:57:17.635Z,1.42
2022-09-14T02:07:20.342Z,1.90
2022-09-14T02:17:22.950Z,2.00
2022-09-14T02:27:25.820Z,1.67
2022-09-14T02:37:40.489Z,1.60
2022-09-14T02:47:42.636Z,2.00
2022-09-14T02:58:11.704Z,1.67
2022-09-14T03:08:14.689Z,1.80
2022-09-14T03:18:17.138Z,2.03
2022-09-14T03:28:19.327Z,1.77
2022-09-14T03:38:21.882Z,1.83
2022-09-14T03:48:24.338Z,1.85
2022-09-14T03:58:27.508Z,1.52
2022-09-14T04:08:29.825Z,1.90
2022-09-14T04:18:32.687Z,1.85
2022-09-14T04:28:34.971Z,1.80
2022-09-14T04:38:38.886Z,1.80
2022-09-14T04:48:41.417Z,2.47
2022-09-14T04:58:51.361Z,2.17
2022-09-14T05:08:55.003Z,2.20
2022-09-14T05:19:02.145Z,2.23
2022-09-14T05:29:04.798Z,2.15
2022-09-14T05:39:08.729Z,2.50
2022-09-14T05:49:11.010Z,2.30
2022-09-14T05:59:13.850Z,2.70
2022-09-14T06:09:16.951Z,2.37
2022-09-14T06:19:28.588Z,2.10
2022-09-14T06:29:31.356Z,2.28
2022-09-14T06:39:35.738Z,2.93
2022-09-14T06:49:48.022Z,2.17
2022-09-14T06:59:51.688Z,2.22
2022-09-14T07:09:54.355Z,3.42
2022-09-14T07:19:59.446Z,2.87
2022-09-14T07:30:03.491Z,2.42
2022-09-14T08:01:39.495Z,3.85
2022-09-14T08:11:42.934Z,3.50
2022-09-14T08:21:48.050Z,3.00
2022-09-14T08:31:57.697Z,2.62
2022-09-14T08:42:16.284Z,2.70
2022-09-14T08:52:34.186Z,2.75
2022-09-14T09:02:45.479Z,2.45
2022-09-14T09:12:54.376Z,2.95
2022-09-14T09:23:14.929Z,2.80
2022-09-14T09:33:24.841Z,3.60
2022-09-14T09:43:48.361Z,3.67
2022-09-14T09:54:08.834Z,3.10
2022-09-14T10:04:22.420Z,3.50
2022-09-14T10:14:36.380Z,3.85
2022-09-14T10:24:40.141Z,2.70
2022-09-14T10:34:43.558Z,2.90
2022-09-14T10:45:21.824Z,2.90
2022-09-14T10:55:51.000Z,2.75
2022-09-14T11:06:02.734Z,2.30
2022-09-14T11:16:28.817Z,2.40
2022-09-14T11:26:44.802Z,1.62
2022-09-14T11:36:57.328Z,0.93
2022-09-14T11:47:09.277Z,1.92
2022-09-14T11:57:19.513Z,1.77
2022-09-14T12:07:45.051Z,1.77
2022-09-14T12:17:51.044Z,1.65
2022-09-14T12:27:56.302Z,1.70
2022-09-14T12:38:01.287Z,1.70
2022-09-14T12:48:07.325Z,1.95
2022-09-14T12:58:43.739Z,1.30
2022-09-14T13:09:12.847Z,1.37
2022-09-14T13:19:35.027Z,1.67
2022-09-14T13:29:39.648Z,1.30
2022-09-14T13:39:53.931Z,1.73
2022-09-14T13:50:00.711Z,1.35
2022-09-14T14:00:19.255Z,1.30
2022-09-14T14:10:30.441Z,0.85
2022-09-14T14:20:36.788Z,1.10
2022-09-14T14:30:41.930Z,1.10
2022-09-14T14:40:46.758Z,1.08
2022-09-14T14:50:51.974Z,1.00
2022-09-14T15:00:56.534Z,1.02
2022-09-14T15:10:59.436Z,1.40
2022-09-14T15:21:02.015Z,0.77
2022-09-14T15:31:08.005Z,1.10
2022-09-14T15:41:13.305Z,1.23
2022-09-14T15:51:17.676Z,0.75
2022-09-14T16:01:20.660Z,0.80
2022-09-14T16:11:23.220Z,0.90
2022-09-14T16:21:28.415Z,0.70
2022-09-14T16:31:33.862Z,0.90
2022-09-14T16:41:38.490Z,0.90
2022-09-14T16:51:41.561Z,0.70
2022-09-14T17:01:47.151Z,0.62
2022-09-14T17:11:54.375Z,0.80
2022-09-14T17:21:57.166Z,0.85
2022-09-14T17:31:59.997Z,1.13
2022-09-14T17:42:02.823Z,1.23
2022-09-14T17:52:05.779Z,1.10
2022-09-14T18:02:09.921Z,1.35
2022-09-14T18:12:16.272Z,1.55
2022-09-14T18:22:19.020Z,1.15
2022-09-14T18:32:21.573Z,1.20
2022-09-14T18:42:24.160Z,1.30
2022-09-14T18:52:26.663Z,1.20
2022-09-14T19:02:29.202Z,1.52
2022-09-14T19:12:32.355Z,1.58
2022-09-14T19:22:35.690Z,1.00
2022-09-14T19:32:38.996Z,0.85
2022-09-14T19:42:41.844Z,0.77
2022-09-14T19:52:44.830Z,0.70
2022-09-14T20:02:47.588Z,0.73
2022-09-14T20:12:50.535Z,0.63
2022-09-14T20:22:53.147Z,0.50
2022-09-14T20:32:55.693Z,0.55
2022-09-14T20:43:00.926Z,0.65
2022-09-14T20:53:03.491Z,0.50
2022-09-14T21:03:06.474Z,0.37
2022-09-14T21:13:09.141Z,0.70
2022-09-14T21:23:11.495Z,0.40
2022-09-14T21:33:14.097Z,0.57
2022-09-14T21:43:16.415Z,0.50
2022-09-14T21:53:18.954Z,0.85
2022-09-14T22:03:21.403Z,0.82
2022-09-14T22:13:23.739Z,0.50
2022-09-14T22:23:26.231Z,0.82
2022-09-14T22:33:29.361Z,0.50
2022-09-14T22:43:33.595Z,0.80
2022-09-14T22:53:36.498Z,0.70
2022-09-14T23:03:38.915Z,0.57
2022-09-14T23:13:42.872Z,0.55
2022-09-14T23:34:00.954Z,0.73
2022-09-14T23:44:03.539Z,0.88
2022-09-14T23:54:06.868Z,0.70
